sensor_id;sensor_type;location;lat;lon;timestamp;pressure;altitude;pressure_sealevel;temperature;humidity
10946;BME280;5525;42.648;23.368;2023-06-22T00:01:12;95082.06;;;18.16;100.00
10946;BME280;5525;42.648;23.368;2023-06-22T00:03:39;95074.78;;;18.24;100.00
10946;BME280;5525;42.648;23.368;2023-06-22T00:06:07;95071.69;;;18.25;100.00
10946;BME280;5525;42.648;23.368;2023-06-22T00:08:34;95082.63;;;18.25;100.00
10946;BME280;5525;42.648;23.368;2023-06-22T00:11:01;95064.88;;;18.16;100.00
10946;BME280;5525;42.648;23.368;2023-06-22T00:13:27;95079.53;;;18.27;100.00
10946;BME280;5525;42.648;23.368;2023-06-22T00:15:54;95074.00;;;18.23;100.00
10946;BME280;5525;42.648;23.368;2023-06-22T00:18:21;95065.69;;;17.97;100.00
10946;BME280;5525;42.648;23.368;2023-06-22T00:20:47;95073.66;;;18.06;100.00
10946;BME280;5525;42.648;23.368;2023-06-22T00:23:15;95056.09;;;18.07;100.00
10946;BME280;5525;42.648;23.368;2023-06-22T00:25:42;95063.94;;;18.08;100.00
10946;BME280;5525;42.648;23.368;2023-06-22T00:28:09;95054.59;;;18.09;100.00
10946;BME280;5525;42.648;23.368;2023-06-22T00:30:36;95049.91;;;18.10;100.00
10946;BME280;5525;42.648;23.368;2023-06-22T00:33:03;95045.63;;;18.09;100.00
10946;BME280;5525;42.648;23.368;2023-06-22T00:35:33;95051.88;;;18.09;100.00
10946;BME280;5525;42.648;23.368;2023-06-22T00:38:00;95052.09;;;18.01;100.00
10946;BME280;5525;42.648;23.368;2023-06-22T00:40:31;95056.63;;;18.12;100.00
10946;BME280;5525;42.648;23.368;2023-06-22T00:42:58;95051.56;;;18.14;100.00
10946;BME280;5525;42.648;23.368;2023-06-22T00:45:25;95050.06;;;17.98;100.00
10946;BME280;5525;42.648;23.368;2023-06-22T00:47:53;95043.13;;;18.00;100.00
10946;BME280;5525;42.648;23.368;2023-06-22T00:50:21;95044.31;;;18.03;100.00
10946;BME280;5525;42.648;23.368;2023-06-22T00:52:51;95045.53;;;18.05;100.00
10946;BME280;5525;42.648;23.368;2023-06-22T00:55:18;95048.34;;;18.09;100.00
10946;BME280;5525;42.648;23.368;2023-06-22T00:57:47;95056.19;;;18.10;100.00
10946;BME280;5525;42.648;23.368;2023-06-22T01:00:15;95045.97;;;18.07;100.00
10946;BME280;5525;42.648;23.368;2023-06-22T01:02:43;95035.59;;;18.16;100.00
10946;BME280;5525;42.648;23.368;2023-06-22T01:05:11;95038.84;;;18.22;100.00
10946;BME280;5525;42.648;23.368;2023-06-22T01:07:42;95054.16;;;18.26;100.00
10946;BME280;5525;42.648;23.368;2023-06-22T01:10:17;95059.56;;;18.23;100.00
10946;BME280;5525;42.648;23.368;2023-06-22T01:12:52;95050.78;;;18.14;100.00
10946;BME280;5525;42.648;23.368;2023-06-22T01:15:25;95045.31;;;18.14;100.00
10946;BME280;5525;42.648;23.368;2023-06-22T01:17:56;95048.41;;;18.12;100.00
10946;BME280;5525;42.648;23.368;2023-06-22T01:20:23;95060.00;;;18.06;100.00
10946;BME280;5525;42.648;23.368;2023-06-22T01:23:02;95057.63;;;18.04;100.00
10946;BME280;5525;42.648;23.368;2023-06-22T01:25:37;95063.47;;;18.03;100.00
10946;BME280;5525;42.648;23.368;2023-06-22T01:28:17;95060.22;;;17.97;100.00
10946;BME280;5525;42.648;23.368;2023-06-22T01:30:49;95061.44;;;18.00;100.00
10946;BME280;5525;42.648;23.368;2023-06-22T01:33:29;95075.47;;;17.98;100.00
10946;BME280;5525;42.648;23.368;2023-06-22T01:35:58;95074.03;;;18.04;100.00
10946;BME280;5525;42.648;23.368;2023-06-22T01:38:26;95072.66;;;17.95;100.00
10946;BME280;5525;42.648;23.368;2023-06-22T01:40:55;95063.16;;;17.89;100.00
10946;BME280;5525;42.648;23.368;2023-06-22T01:43:24;95063.16;;;17.89;100.00
10946;BME280;5525;42.648;23.368;2023-06-22T01:45:53;95065.81;;;17.85;100.00
10946;BME280;5525;42.648;23.368;2023-06-22T01:48:20;95075.38;;;17.95;100.00
10946;BME280;5525;42.648;23.368;2023-06-22T01:50:48;95079.78;;;17.99;100.00
10946;BME280;5525;42.648;23.368;2023-06-22T01:53:15;95076.19;;;17.95;100.00
10946;BME280;5525;42.648;23.368;2023-06-22T01:55:41;95081.09;;;17.86;100.00
10946;BME280;5525;42.648;23.368;2023-06-22T01:58:08;95079.13;;;17.68;100.00
10946;BME280;5525;42.648;23.368;2023-06-22T02:00:37;95083.53;;;17.72;100.00
10946;BME280;5525;42.648;23.368;2023-06-22T02:03:10;95080.63;;;17.31;100.00
10946;BME280;5525;42.648;23.368;2023-06-22T02:05:41;95088.34;;;17.29;100.00
10946;BME280;5525;42.648;23.368;2023-06-22T02:08:13;95080.97;;;17.45;100.00
10946;BME280;5525;42.648;23.368;2023-06-22T02:10:42;95085.41;;;17.18;100.00
10946;BME280;5525;42.648;23.368;2023-06-22T02:13:11;95100.53;;;17.16;100.00
10946;BME280;5525;42.648;23.368;2023-06-22T02:15:39;95097.97;;;17.23;100.00
10946;BME280;5525;42.648;23.368;2023-06-22T02:18:07;95092.88;;;17.21;100.00
10946;BME280;5525;42.648;23.368;2023-06-22T02:20:36;95076.69;;;17.13;100.00
10946;BME280;5525;42.648;23.368;2023-06-22T02:23:03;95070.59;;;17.19;100.00
10946;BME280;5525;42.648;23.368;2023-06-22T02:25:29;95085.00;;;16.85;100.00
10946;BME280;5525;42.648;23.368;2023-06-22T02:27:57;95092.47;;;16.72;100.00
10946;BME280;5525;42.648;23.368;2023-06-22T02:30:24;95084.47;;;16.64;100.00
10946;BME280;5525;42.648;23.368;2023-06-22T02:32:50;95089.75;;;16.57;100.00
10946;BME280;5525;42.648;23.368;2023-06-22T02:35:26;95087.09;;;16.45;100.00
10946;BME280;5525;42.648;23.368;2023-06-22T02:37:56;95086.31;;;16.60;100.00
10946;BME280;5525;42.648;23.368;2023-06-22T02:40:23;95083.59;;;16.60;100.00
10946;BME280;5525;42.648;23.368;2023-06-22T02:42:50;95088.22;;;16.44;100.00
10946;BME280;5525;42.648;23.368;2023-06-22T02:45:16;95092.16;;;16.03;100.00
10946;BME280;5525;42.648;23.368;2023-06-22T02:47:43;95095.34;;;16.21;100.00
10946;BME280;5525;42.648;23.368;2023-06-22T02:50:10;95092.75;;;16.24;100.00
10946;BME280;5525;42.648;23.368;2023-06-22T02:52:38;95101.25;;;16.23;100.00
10946;BME280;5525;42.648;23.368;2023-06-22T02:55:05;95104.50;;;16.13;100.00
10946;BME280;5525;42.648;23.368;2023-06-22T02:57:33;95098.50;;;16.07;100.00
10946;BME280;5525;42.648;23.368;2023-06-22T03:00:02;95101.03;;;16.00;100.00
10946;BME280;5525;42.648;23.368;2023-06-22T03:02:37;95105.91;;;16.22;100.00
10946;BME280;5525;42.648;23.368;2023-06-22T03:05:04;95107.44;;;16.35;100.00
10946;BME280;5525;42.648;23.368;2023-06-22T03:07:31;95107.06;;;16.49;100.00
10946;BME280;5525;42.648;23.368;2023-06-22T03:09:59;95098.09;;;16.64;100.00
10946;BME280;5525;42.648;23.368;2023-06-22T03:12:26;95101.53;;;16.76;100.00
10946;BME280;5525;42.648;23.368;2023-06-22T03:14:52;95109.63;;;16.88;100.00
10946;BME280;5525;42.648;23.368;2023-06-22T03:17:19;95112.09;;;16.94;100.00
10946;BME280;5525;42.648;23.368;2023-06-22T03:19:46;95115.59;;;17.10;100.00
10946;BME280;5525;42.648;23.368;2023-06-22T03:22:12;95124.09;;;17.24;100.00
10946;BME280;5525;42.648;23.368;2023-06-22T03:24:40;95130.63;;;17.19;100.00
10946;BME280;5525;42.648;23.368;2023-06-22T03:27:08;95136.44;;;17.18;100.00
10946;BME280;5525;42.648;23.368;2023-06-22T03:29:35;95130.81;;;17.26;100.00
10946;BME280;5525;42.648;23.368;2023-06-22T03:32:02;95130.00;;;17.26;100.00
10946;BME280;5525;42.648;23.368;2023-06-22T03:34:30;95128.69;;;17.20;100.00
10946;BME280;5525;42.648;23.368;2023-06-22T03:36:58;95134.59;;;17.37;100.00
10946;BME280;5525;42.648;23.368;2023-06-22T03:39:25;95132.28;;;17.39;100.00
10946;BME280;5525;42.648;23.368;2023-06-22T03:41:52;95130.13;;;17.45;100.00
10946;BME280;5525;42.648;23.368;2023-06-22T03:44:20;95132.72;;;17.57;100.00
10946;BME280;5525;42.648;23.368;2023-06-22T03:46:47;95140.69;;;17.65;100.00
10946;BME280;5525;42.648;23.368;2023-06-22T03:49:13;95135.41;;;17.72;100.00
10946;BME280;5525;42.648;23.368;2023-06-22T03:51:40;95139.81;;;17.77;100.00
10946;BME280;5525;42.648;23.368;2023-06-22T03:54:06;95141.31;;;17.93;100.00
10946;BME280;5525;42.648;23.368;2023-06-22T03:56:33;95144.78;;;18.09;100.00
10946;BME280;5525;42.648;23.368;2023-06-22T03:59:00;95146.72;;;18.09;100.00
10946;BME280;5525;42.648;23.368;2023-06-22T04:01:28;95146.38;;;18.29;100.00
10946;BME280;5525;42.648;23.368;2023-06-22T04:03:54;95151.03;;;18.29;100.00
10946;BME280;5525;42.648;23.368;2023-06-22T04:06:21;95146.19;;;18.38;100.00
10946;BME280;5525;42.648;23.368;2023-06-22T04:08:49;95146.09;;;18.54;100.00
10946;BME280;5525;42.648;23.368;2023-06-22T04:11:16;95156.13;;;18.69;100.00
10946;BME280;5525;42.648;23.368;2023-06-22T04:13:42;95156.38;;;18.41;100.00
10946;BME280;5525;42.648;23.368;2023-06-22T04:16:09;95146.97;;;18.80;100.00
10946;BME280;5525;42.648;23.368;2023-06-22T04:18:37;95141.94;;;19.27;100.00
10946;BME280;5525;42.648;23.368;2023-06-22T04:21:04;95136.00;;;20.03;100.00
10946;BME280;5525;42.648;23.368;2023-06-22T04:23:31;95137.84;;;20.92;100.00
10946;BME280;5525;42.648;23.368;2023-06-22T04:25:57;95134.19;;;21.68;100.00
10946;BME280;5525;42.648;23.368;2023-06-22T04:28:25;95126.38;;;22.49;100.00
10946;BME280;5525;42.648;23.368;2023-06-22T04:30:52;95123.06;;;23.36;100.00
10946;BME280;5525;42.648;23.368;2023-06-22T04:33:23;95121.06;;;23.82;100.00
10946;BME280;5525;42.648;23.368;2023-06-22T04:35:51;95109.19;;;24.10;100.00
10946;BME280;5525;42.648;23.368;2023-06-22T04:38:18;95117.25;;;24.69;100.00
10946;BME280;5525;42.648;23.368;2023-06-22T04:40:46;95118.75;;;24.84;100.00
10946;BME280;5525;42.648;23.368;2023-06-22T04:43:13;95117.28;;;25.28;100.00
10946;BME280;5525;42.648;23.368;2023-06-22T04:45:40;95126.56;;;26.02;100.00
10946;BME280;5525;42.648;23.368;2023-06-22T04:48:07;95125.28;;;26.10;100.00
10946;BME280;5525;42.648;23.368;2023-06-22T04:50:35;95131.16;;;26.16;100.00
10946;BME280;5525;42.648;23.368;2023-06-22T04:53:05;95125.00;;;26.99;100.00
10946;BME280;5525;42.648;23.368;2023-06-22T04:55:32;95125.22;;;27.11;100.00
10946;BME280;5525;42.648;23.368;2023-06-22T04:57:59;95138.16;;;27.21;100.00
10946;BME280;5525;42.648;23.368;2023-06-22T05:00:30;95142.19;;;27.43;100.00
10946;BME280;5525;42.648;23.368;2023-06-22T05:02:57;95156.91;;;28.13;100.00
10946;BME280;5525;42.648;23.368;2023-06-22T05:05:24;95155.31;;;29.33;95.94
10946;BME280;5525;42.648;23.368;2023-06-22T05:07:51;95168.34;;;30.64;85.84
10946;BME280;5525;42.648;23.368;2023-06-22T05:10:21;95166.19;;;31.26;80.35
10946;BME280;5525;42.648;23.368;2023-06-22T05:12:48;95163.09;;;31.36;75.52
10946;BME280;5525;42.648;23.368;2023-06-22T05:15:14;95158.53;;;31.80;74.93
10946;BME280;5525;42.648;23.368;2023-06-22T05:17:41;95159.88;;;30.96;75.21
10946;BME280;5525;42.648;23.368;2023-06-22T05:20:09;95148.16;;;30.00;79.89
10946;BME280;5525;42.648;23.368;2023-06-22T05:22:36;95153.81;;;29.96;80.39
10946;BME280;5525;42.648;23.368;2023-06-22T05:25:04;95158.56;;;32.26;70.81
10946;BME280;5525;42.648;23.368;2023-06-22T05:27:32;95162.66;;;33.03;64.56
10946;BME280;5525;42.648;23.368;2023-06-22T05:29:59;95176.78;;;33.21;61.85
10946;BME280;5525;42.648;23.368;2023-06-22T05:32:26;95178.34;;;33.83;57.52
10946;BME280;5525;42.648;23.368;2023-06-22T05:34:52;95184.06;;;34.86;54.59
10946;BME280;5525;42.648;23.368;2023-06-22T05:37:19;95186.25;;;34.91;52.19
10946;BME280;5525;42.648;23.368;2023-06-22T05:39:46;95188.31;;;36.10;48.41
10946;BME280;5525;42.648;23.368;2023-06-22T05:42:13;95179.34;;;35.88;48.13
10946;BME280;5525;42.648;23.368;2023-06-22T05:44:41;95196.53;;;36.55;46.49
10946;BME280;5525;42.648;23.368;2023-06-22T05:47:08;95216.31;;;36.04;47.07
10946;BME280;5525;42.648;23.368;2023-06-22T05:49:34;95199.75;;;35.55;47.41
10946;BME280;5525;42.648;23.368;2023-06-22T05:52:01;95207.84;;;36.46;46.29
10946;BME280;5525;42.648;23.368;2023-06-22T05:54:28;95211.50;;;35.96;45.67
10946;BME280;5525;42.648;23.368;2023-06-22T05:56:55;95200.84;;;36.09;46.17
10946;BME280;5525;42.648;23.368;2023-06-22T05:59:22;95207.13;;;34.81;48.40
10946;BME280;5525;42.648;23.368;2023-06-22T06:01:50;95200.47;;;34.30;50.19
10946;BME280;5525;42.648;23.368;2023-06-22T06:04:17;95198.91;;;34.19;51.35
10946;BME280;5525;42.648;23.368;2023-06-22T06:06:43;95200.28;;;34.91;49.81
10946;BME280;5525;42.648;23.368;2023-06-22T06:09:10;95192.47;;;34.86;50.75
10946;BME280;5525;42.648;23.368;2023-06-22T06:11:37;95199.47;;;35.17;46.66
10946;BME280;5525;42.648;23.368;2023-06-22T06:14:04;95194.66;;;35.87;44.89
10946;BME280;5525;42.648;23.368;2023-06-22T06:16:30;95181.53;;;36.72;42.97
10946;BME280;5525;42.648;23.368;2023-06-22T06:18:58;95194.09;;;35.64;44.03
10946;BME280;5525;42.648;23.368;2023-06-22T06:21:25;95187.50;;;35.86;44.13
10946;BME280;5525;42.648;23.368;2023-06-22T06:23:52;95176.69;;;35.93;44.82
10946;BME280;5525;42.648;23.368;2023-06-22T06:26:19;95189.00;;;35.96;46.13
10946;BME280;5525;42.648;23.368;2023-06-22T06:28:51;95184.41;;;38.47;39.51
10946;BME280;5525;42.648;23.368;2023-06-22T06:31:18;95194.69;;;39.50;37.22
10946;BME280;5525;42.648;23.368;2023-06-22T06:33:46;95193.94;;;39.30;36.82
10946;BME280;5525;42.648;23.368;2023-06-22T06:36:14;95199.66;;;39.61;36.32
10946;BME280;5525;42.648;23.368;2023-06-22T06:38:41;95189.97;;;41.30;33.19
10946;BME280;5525;42.648;23.368;2023-06-22T06:41:09;95194.75;;;42.11;31.45
10946;BME280;5525;42.648;23.368;2023-06-22T06:43:37;95188.03;;;41.97;30.91
10946;BME280;5525;42.648;23.368;2023-06-22T06:46:04;95184.41;;;42.52;29.44
10946;BME280;5525;42.648;23.368;2023-06-22T06:48:31;95186.72;;;43.27;28.46
10946;BME280;5525;42.648;23.368;2023-06-22T06:50:58;95176.66;;;41.53;30.89
10946;BME280;5525;42.648;23.368;2023-06-22T06:53:26;95179.56;;;41.05;31.81
10946;BME280;5525;42.648;23.368;2023-06-22T06:55:53;95166.03;;;39.94;32.25
10946;BME280;5525;42.648;23.368;2023-06-22T06:58:21;95170.56;;;40.17;34.18
10946;BME280;5525;42.648;23.368;2023-06-22T07:00:48;95157.88;;;39.45;33.60
10946;BME280;5525;42.648;23.368;2023-06-22T07:03:15;95160.69;;;35.66;40.09
10946;BME280;5525;42.648;23.368;2023-06-22T07:05:41;95151.41;;;34.34;44.91
10946;BME280;5525;42.648;23.368;2023-06-22T07:08:08;95150.41;;;33.92;48.65
10946;BME280;5525;42.648;23.368;2023-06-22T07:10:36;95150.34;;;33.00;52.69
10946;BME280;5525;42.648;23.368;2023-06-22T07:13:03;95150.00;;;33.41;51.60
10946;BME280;5525;42.648;23.368;2023-06-22T07:15:29;95157.22;;;33.30;52.49
10946;BME280;5525;42.648;23.368;2023-06-22T07:17:56;95149.22;;;34.29;49.96
10946;BME280;5525;42.648;23.368;2023-06-22T07:20:22;95147.88;;;37.31;43.16
10946;BME280;5525;42.648;23.368;2023-06-22T07:22:49;95165.31;;;41.75;34.44
10946;BME280;5525;42.648;23.368;2023-06-22T07:25:16;95180.31;;;44.02;29.35
10946;BME280;5525;42.648;23.368;2023-06-22T07:27:46;95174.31;;;44.06;28.28
10946;BME280;5525;42.648;23.368;2023-06-22T07:30:22;95170.84;;;42.91;29.85
10946;BME280;5525;42.648;23.368;2023-06-22T07:32:49;95168.69;;;43.60;29.62
10946;BME280;5525;42.648;23.368;2023-06-22T07:35:16;95166.94;;;43.86;29.07
10946;BME280;5525;42.648;23.368;2023-06-22T07:37:43;95177.47;;;45.04;27.91
10946;BME280;5525;42.648;23.368;2023-06-22T07:40:10;95173.97;;;45.54;26.40
10946;BME280;5525;42.648;23.368;2023-06-22T07:42:37;95181.44;;;45.57;25.63
10946;BME280;5525;42.648;23.368;2023-06-22T07:45:07;95181.72;;;45.72;24.89
10946;BME280;5525;42.648;23.368;2023-06-22T07:47:34;95178.59;;;44.47;25.66
10946;BME280;5525;42.648;23.368;2023-06-22T07:50:02;95172.75;;;42.61;28.02
10946;BME280;5525;42.648;23.368;2023-06-22T07:52:30;95167.53;;;41.16;29.50
10946;BME280;5525;42.648;23.368;2023-06-22T07:54:57;95173.34;;;42.32;29.16
10946;BME280;5525;42.648;23.368;2023-06-22T07:57:23;95166.03;;;41.48;30.25
10946;BME280;5525;42.648;23.368;2023-06-22T07:59:57;95174.97;;;43.53;28.29
10946;BME280;5525;42.648;23.368;2023-06-22T08:02:25;95170.66;;;44.89;26.62
10946;BME280;5525;42.648;23.368;2023-06-22T08:04:52;95171.16;;;44.68;26.80
10946;BME280;5525;42.648;23.368;2023-06-22T08:07:19;95166.03;;;45.47;25.47
10946;BME280;5525;42.648;23.368;2023-06-22T08:09:47;95159.00;;;45.98;25.22
10946;BME280;5525;42.648;23.368;2023-06-22T08:12:14;95158.53;;;45.62;25.34
10946;BME280;5525;42.648;23.368;2023-06-22T08:14:42;95157.34;;;45.89;25.20
10946;BME280;5525;42.648;23.368;2023-06-22T08:17:09;95157.81;;;46.38;24.44
10946;BME280;5525;42.648;23.368;2023-06-22T08:19:38;95132.03;;;45.12;25.27
10946;BME280;5525;42.648;23.368;2023-06-22T08:22:05;95144.81;;;42.70;27.72
10946;BME280;5525;42.648;23.368;2023-06-22T08:24:32;95131.91;;;40.45;30.79
10946;BME280;5525;42.648;23.368;2023-06-22T08:26:58;95132.47;;;41.19;31.06
10946;BME280;5525;42.648;23.368;2023-06-22T08:29:25;95131.03;;;40.76;30.77
10946;BME280;5525;42.648;23.368;2023-06-22T08:31:52;95123.94;;;40.49;31.66
10946;BME280;5525;42.648;23.368;2023-06-22T08:34:18;95119.16;;;39.31;34.02
10946;BME280;5525;42.648;23.368;2023-06-22T08:36:48;95111.31;;;36.78;37.71
10946;BME280;5525;42.648;23.368;2023-06-22T08:39:18;95118.56;;;37.22;40.02
10946;BME280;5525;42.648;23.368;2023-06-22T08:41:45;95115.91;;;37.19;39.66
10946;BME280;5525;42.648;23.368;2023-06-22T08:44:11;95122.34;;;36.20;41.41
10946;BME280;5525;42.648;23.368;2023-06-22T08:46:38;95115.66;;;36.79;42.72
10946;BME280;5525;42.648;23.368;2023-06-22T08:49:06;95122.66;;;36.45;40.20
10946;BME280;5525;42.648;23.368;2023-06-22T08:51:33;95119.69;;;36.16;42.53
10946;BME280;5525;42.648;23.368;2023-06-22T08:54:01;95113.81;;;36.38;40.71
10946;BME280;5525;42.648;23.368;2023-06-22T08:56:27;95114.84;;;36.17;40.68
10946;BME280;5525;42.648;23.368;2023-06-22T08:58:54;95108.97;;;36.76;39.30
10946;BME280;5525;42.648;23.368;2023-06-22T09:01:21;95112.03;;;40.93;34.48
10946;BME280;5525;42.648;23.368;2023-06-22T09:03:48;95130.06;;;44.34;26.87
10946;BME280;5525;42.648;23.368;2023-06-22T09:06:21;95126.31;;;45.99;25.29
10946;BME280;5525;42.648;23.368;2023-06-22T09:08:50;95119.41;;;46.65;24.92
10946;BME280;5525;42.648;23.368;2023-06-22T09:11:19;95128.06;;;46.60;23.84
10946;BME280;5525;42.648;23.368;2023-06-22T09:13:46;95120.84;;;45.14;25.06
10946;BME280;5525;42.648;23.368;2023-06-22T09:16:12;95121.03;;;46.74;24.08
10946;BME280;5525;42.648;23.368;2023-06-22T09:18:39;95124.56;;;46.67;23.04
10946;BME280;5525;42.648;23.368;2023-06-22T09:21:06;95124.00;;;46.68;22.76
10946;BME280;5525;42.648;23.368;2023-06-22T09:23:33;95125.66;;;46.77;22.91
10946;BME280;5525;42.648;23.368;2023-06-22T09:25:59;95123.06;;;45.76;23.59
10946;BME280;5525;42.648;23.368;2023-06-22T09:28:27;95121.03;;;45.71;24.10
10946;BME280;5525;42.648;23.368;2023-06-22T09:30:54;95119.69;;;46.23;23.54
10946;BME280;5525;42.648;23.368;2023-06-22T09:33:25;95129.94;;;47.09;22.48
10946;BME280;5525;42.648;23.368;2023-06-22T09:35:52;95133.84;;;48.20;21.29
10946;BME280;5525;42.648;23.368;2023-06-22T09:38:18;95132.63;;;48.57;20.35
10946;BME280;5525;42.648;23.368;2023-06-22T09:40:45;95127.34;;;46.85;21.91
10946;BME280;5525;42.648;23.368;2023-06-22T09:43:12;95127.00;;;45.55;21.64
10946;BME280;5525;42.648;23.368;2023-06-22T09:45:40;95124.09;;;46.63;20.49
10946;BME280;5525;42.648;23.368;2023-06-22T09:48:06;95126.00;;;47.80;20.50
10946;BME280;5525;42.648;23.368;2023-06-22T09:50:35;95133.69;;;48.26;18.81
10946;BME280;5525;42.648;23.368;2023-06-22T09:53:01;95124.44;;;47.58;19.80
10946;BME280;5525;42.648;23.368;2023-06-22T09:55:28;95130.78;;;48.39;19.56
10946;BME280;5525;42.648;23.368;2023-06-22T09:57:55;95123.91;;;47.46;20.13
10946;BME280;5525;42.648;23.368;2023-06-22T10:00:23;95119.38;;;48.74;19.50
10946;BME280;5525;42.648;23.368;2023-06-22T10:02:53;95110.78;;;47.51;20.34
10946;BME280;5525;42.648;23.368;2023-06-22T10:05:21;95115.47;;;48.16;19.96
10946;BME280;5525;42.648;23.368;2023-06-22T10:07:47;95111.31;;;47.29;20.67
10946;BME280;5525;42.648;23.368;2023-06-22T10:10:14;95101.78;;;45.59;21.92
10946;BME280;5525;42.648;23.368;2023-06-22T10:12:42;95090.44;;;43.77;23.48
10946;BME280;5525;42.648;23.368;2023-06-22T10:15:10;95088.19;;;44.91;22.22
10946;BME280;5525;42.648;23.368;2023-06-22T10:17:37;95095.28;;;44.41;23.13
10946;BME280;5525;42.648;23.368;2023-06-22T10:20:07;95084.53;;;46.54;21.58
10946;BME280;5525;42.648;23.368;2023-06-22T10:22:38;95083.19;;;46.15;21.24
10946;BME280;5525;42.648;23.368;2023-06-22T10:25:05;95079.78;;;45.54;23.06
10946;BME280;5525;42.648;23.368;2023-06-22T10:27:32;95083.19;;;45.34;23.06
10946;BME280;5525;42.648;23.368;2023-06-22T10:29:59;95073.97;;;44.24;23.20
10946;BME280;5525;42.648;23.368;2023-06-22T10:32:26;95081.59;;;44.10;23.43
10946;BME280;5525;42.648;23.368;2023-06-22T10:34:53;95056.72;;;41.86;25.53
10946;BME280;5525;42.648;23.368;2023-06-22T10:37:22;95067.72;;;42.39;26.01
10946;BME280;5525;42.648;23.368;2023-06-22T10:39:48;95066.72;;;43.69;24.20
10946;BME280;5525;42.648;23.368;2023-06-22T10:42:15;95065.38;;;44.29;23.73
10946;BME280;5525;42.648;23.368;2023-06-22T10:44:42;95058.97;;;43.70;24.21
10946;BME280;5525;42.648;23.368;2023-06-22T10:47:09;95047.63;;;42.26;25.91
10946;BME280;5525;42.648;23.368;2023-06-22T10:49:39;95061.09;;;42.03;25.89
10946;BME280;5525;42.648;23.368;2023-06-22T10:52:07;95058.28;;;41.81;25.88
10946;BME280;5525;42.648;23.368;2023-06-22T10:54:36;95054.81;;;42.43;25.62
10946;BME280;5525;42.648;23.368;2023-06-22T10:57:03;95047.56;;;42.99;24.84
10946;BME280;5525;42.648;23.368;2023-06-22T10:59:30;95047.16;;;42.79;25.23
10946;BME280;5525;42.648;23.368;2023-06-22T11:01:58;95056.97;;;42.83;26.73
10946;BME280;5525;42.648;23.368;2023-06-22T11:04:25;95052.81;;;42.11;25.03
10946;BME280;5525;42.648;23.368;2023-06-22T11:06:51;95053.84;;;43.28;23.44
10946;BME280;5525;42.648;23.368;2023-06-22T11:09:18;95049.81;;;44.06;22.74
10946;BME280;5525;42.648;23.368;2023-06-22T11:11:49;95053.72;;;44.03;23.18
10946;BME280;5525;42.648;23.368;2023-06-22T11:14:16;95049.91;;;43.36;24.51
10946;BME280;5525;42.648;23.368;2023-06-22T11:16:43;95042.06;;;43.12;24.47
10946;BME280;5525;42.648;23.368;2023-06-22T11:19:09;95042.63;;;43.00;25.03
10946;BME280;5525;42.648;23.368;2023-06-22T11:21:36;95039.84;;;42.94;23.45
10946;BME280;5525;42.648;23.368;2023-06-22T11:24:03;95030.34;;;42.24;24.36
10946;BME280;5525;42.648;23.368;2023-06-22T11:26:30;95033.03;;;42.62;24.23
10946;BME280;5525;42.648;23.368;2023-06-22T11:28:59;95031.06;;;42.35;24.46
10946;BME280;5525;42.648;23.368;2023-06-22T11:31:26;95024.28;;;41.59;24.54
10946;BME280;5525;42.648;23.368;2023-06-22T11:33:53;95024.56;;;39.88;25.62
10946;BME280;5525;42.648;23.368;2023-06-22T11:36:19;95010.22;;;40.62;25.59
10946;BME280;5525;42.648;23.368;2023-06-22T11:38:46;95020.09;;;39.09;27.04
10946;BME280;5525;42.648;23.368;2023-06-22T11:41:13;95015.97;;;40.19;26.17
10946;BME280;5525;42.648;23.368;2023-06-22T11:43:40;95019.63;;;39.16;27.67
10946;BME280;5525;42.648;23.368;2023-06-22T11:46:08;95014.06;;;38.10;28.76
10946;BME280;5525;42.648;23.368;2023-06-22T11:48:34;95005.00;;;37.02;29.93
10946;BME280;5525;42.648;23.368;2023-06-22T11:51:01;94996.63;;;36.11;30.93
10946;BME280;5525;42.648;23.368;2023-06-22T11:53:28;94988.63;;;35.71;31.62
10946;BME280;5525;42.648;23.368;2023-06-22T11:55:55;94991.50;;;35.86;32.97
10946;BME280;5525;42.648;23.368;2023-06-22T11:58:22;94981.94;;;35.93;32.98
10946;BME280;5525;42.648;23.368;2023-06-22T12:00:49;94992.75;;;36.23;32.97
10946;BME280;5525;42.648;23.368;2023-06-22T12:03:18;94985.47;;;36.55;31.24
10946;BME280;5525;42.648;23.368;2023-06-22T12:05:46;94987.25;;;36.29;31.73
10946;BME280;5525;42.648;23.368;2023-06-22T12:08:13;94987.81;;;36.56;31.72
10946;BME280;5525;42.648;23.368;2023-06-22T12:10:42;94992.22;;;36.34;33.08
10946;BME280;5525;42.648;23.368;2023-06-22T12:13:09;94990.38;;;36.31;33.57
10946;BME280;5525;42.648;23.368;2023-06-22T12:15:35;94991.19;;;35.60;34.98
10946;BME280;5525;42.648;23.368;2023-06-22T12:18:02;94993.16;;;34.44;38.08
10946;BME280;5525;42.648;23.368;2023-06-22T12:20:30;94999.91;;;33.53;39.53
10946;BME280;5525;42.648;23.368;2023-06-22T12:22:57;95001.75;;;32.46;46.38
10946;BME280;5525;42.648;23.368;2023-06-22T12:25:24;95000.53;;;31.79;54.41
10946;BME280;5525;42.648;23.368;2023-06-22T12:27:51;95002.53;;;30.94;65.10
10946;BME280;5525;42.648;23.368;2023-06-22T12:30:17;95003.41;;;30.25;74.50
10946;BME280;5525;42.648;23.368;2023-06-22T12:32:44;95003.91;;;29.63;79.62
10946;BME280;5525;42.648;23.368;2023-06-22T12:35:11;95014.63;;;29.64;82.21
10946;BME280;5525;42.648;23.368;2023-06-22T12:37:40;95025.84;;;29.28;87.46
10946;BME280;5525;42.648;23.368;2023-06-22T12:40:08;95033.28;;;28.99;94.67
10946;BME280;5525;42.648;23.368;2023-06-22T12:42:35;95047.69;;;28.94;100.00
10946;BME280;5525;42.648;23.368;2023-06-22T12:45:02;95045.00;;;27.50;100.00
10946;BME280;5525;42.648;23.368;2023-06-22T12:47:29;95049.47;;;25.60;100.00
10946;BME280;5525;42.648;23.368;2023-06-22T12:49:56;95038.00;;;24.59;100.00
10946;BME280;5525;42.648;23.368;2023-06-22T12:52:23;95034.34;;;24.04;100.00
10946;BME280;5525;42.648;23.368;2023-06-22T12:54:51;95046.66;;;23.61;100.00
10946;BME280;5525;42.648;23.368;2023-06-22T12:57:18;95062.41;;;23.33;100.00